sensor_id;sensor_type;location;lat;lon;timestamp;P1;durP1;ratioP1;P2;durP2;ratioP2
52512;SDS011;38422;53.172;6.974;2023-08-21T00:01:31;5.40;;;2.80;;
52512;SDS011;38422;53.172;6.974;2023-08-21T00:03:57;4.57;;;2.60;;
52512;SDS011;38422;53.172;6.974;2023-08-21T00:06:23;5.03;;;2.70;;
52512;SDS011;38422;53.172;6.974;2023-08-21T00:08:48;4.20;;;2.58;;
52512;SDS011;38422;53.172;6.974;2023-08-21T00:11:14;5.25;;;2.60;;
52512;SDS011;38422;53.172;6.974;2023-08-21T00:13:39;3.60;;;2.47;;
52512;SDS011;38422;53.172;6.974;2023-08-21T00:16:09;4.70;;;2.50;;
52512;SDS011;38422;53.172;6.974;2023-08-21T00:18:38;4.00;;;2.55;;
52512;SDS011;38422;53.172;6.974;2023-08-21T00:21:04;5.55;;;2.65;;
52512;SDS011;38422;53.172;6.974;2023-08-21T00:23:30;5.85;;;2.60;;
52512;SDS011;38422;53.172;6.974;2023-08-21T00:25:56;3.38;;;2.15;;
52512;SDS011;38422;53.172;6.974;2023-08-21T00:28:22;4.00;;;2.40;;
52512;SDS011;38422;53.172;6.974;2023-08-21T00:30:48;5.00;;;2.55;;
52512;SDS011;38422;53.172;6.974;2023-08-21T00:33:13;4.55;;;2.30;;
52512;SDS011;38422;53.172;6.974;2023-08-21T00:35:39;3.65;;;2.60;;
52512;SDS011;38422;53.172;6.974;2023-08-21T00:38:05;3.63;;;2.53;;
52512;SDS011;38422;53.172;6.974;2023-08-21T00:40:31;2.85;;;2.33;;
52512;SDS011;38422;53.172;6.974;2023-08-21T00:42:57;3.33;;;2.50;;
52512;SDS011;38422;53.172;6.974;2023-08-21T00:45:22;2.53;;;1.92;;
52512;SDS011;38422;53.172;6.974;2023-08-21T00:47:48;3.35;;;2.05;;
52512;SDS011;38422;53.172;6.974;2023-08-21T00:50:14;2.85;;;2.00;;
52512;SDS011;38422;53.172;6.974;2023-08-21T00:52:40;2.63;;;1.75;;
52512;SDS011;38422;53.172;6.974;2023-08-21T00:55:10;3.50;;;1.80;;
52512;SDS011;38422;53.172;6.974;2023-08-21T00:57:37;3.85;;;2.10;;
52512;SDS011;38422;53.172;6.974;2023-08-21T01:00:04;2.63;;;1.70;;
52512;SDS011;38422;53.172;6.974;2023-08-21T01:02:31;3.42;;;1.98;;
52512;SDS011;38422;53.172;6.974;2023-08-21T01:04:56;3.05;;;1.90;;
52512;SDS011;38422;53.172;6.974;2023-08-21T01:07:22;3.85;;;1.92;;
52512;SDS011;38422;53.172;6.974;2023-08-21T01:15:31;3.50;;;2.10;;
52512;SDS011;38422;53.172;6.974;2023-08-21T01:17:58;3.50;;;1.83;;
52512;SDS011;38422;53.172;6.974;2023-08-21T01:20:24;3.15;;;1.70;;
52512;SDS011;38422;53.172;6.974;2023-08-21T01:22:50;4.22;;;2.17;;
52512;SDS011;38422;53.172;6.974;2023-08-21T01:25:16;4.03;;;2.00;;
52512;SDS011;38422;53.172;6.974;2023-08-21T01:27:46;3.25;;;2.00;;
52512;SDS011;38422;53.172;6.974;2023-08-21T01:30:14;3.08;;;1.95;;
52512;SDS011;38422;53.172;6.974;2023-08-21T01:35:11;5.22;;;2.58;;
52512;SDS011;38422;53.172;6.974;2023-08-21T01:37:37;4.78;;;2.20;;
52512;SDS011;38422;53.172;6.974;2023-08-21T01:40:04;4.07;;;2.28;;
52512;SDS011;38422;53.172;6.974;2023-08-21T01:42:30;3.75;;;2.28;;
52512;SDS011;38422;53.172;6.974;2023-08-21T01:44:56;6.50;;;2.70;;
52512;SDS011;38422;53.172;6.974;2023-08-21T01:47:22;5.65;;;2.60;;
52512;SDS011;38422;53.172;6.974;2023-08-21T01:49:47;4.57;;;2.35;;
52512;SDS011;38422;53.172;6.974;2023-08-21T01:52:13;3.97;;;2.72;;
52512;SDS011;38422;53.172;6.974;2023-08-21T01:54:39;6.10;;;2.65;;
52512;SDS011;38422;53.172;6.974;2023-08-21T01:57:04;4.50;;;2.55;;
52512;SDS011;38422;53.172;6.974;2023-08-21T01:59:30;7.25;;;2.58;;
52512;SDS011;38422;53.172;6.974;2023-08-21T02:01:56;4.82;;;2.60;;
52512;SDS011;38422;53.172;6.974;2023-08-21T02:04:21;5.25;;;2.50;;
52512;SDS011;38422;53.172;6.974;2023-08-21T02:06:47;5.35;;;2.20;;
52512;SDS011;38422;53.172;6.974;2023-08-21T02:09:13;4.18;;;2.35;;
52512;SDS011;38422;53.172;6.974;2023-08-21T02:11:38;4.63;;;2.60;;
52512;SDS011;38422;53.172;6.974;2023-08-21T02:14:04;6.40;;;2.83;;
52512;SDS011;38422;53.172;6.974;2023-08-21T02:16:30;4.72;;;2.70;;
52512;SDS011;38422;53.172;6.974;2023-08-21T02:18:55;6.35;;;3.22;;
52512;SDS011;38422;53.172;6.974;2023-08-21T02:21:22;5.50;;;2.63;;
52512;SDS011;38422;53.172;6.974;2023-08-21T02:23:48;5.07;;;2.53;;
52512;SDS011;38422;53.172;6.974;2023-08-21T02:26:13;5.70;;;2.65;;
52512;SDS011;38422;53.172;6.974;2023-08-21T02:28:39;4.35;;;2.33;;
52512;SDS011;38422;53.172;6.974;2023-08-21T02:31:05;5.78;;;2.30;;
52512;SDS011;38422;53.172;6.974;2023-08-21T02:33:34;4.40;;;2.03;;
52512;SDS011;38422;53.172;6.974;2023-08-21T02:36:00;5.38;;;1.95;;
52512;SDS011;38422;53.172;6.974;2023-08-21T02:38:28;4.78;;;2.55;;
52512;SDS011;38422;53.172;6.974;2023-08-21T02:40:53;3.40;;;2.10;;
52512;SDS011;38422;53.172;6.974;2023-08-21T02:43:19;7.40;;;2.35;;
52512;SDS011;38422;53.172;6.974;2023-08-21T02:45:45;4.32;;;2.42;;
52512;SDS011;38422;53.172;6.974;2023-08-21T02:48:10;6.25;;;2.28;;
52512;SDS011;38422;53.172;6.974;2023-08-21T02:50:36;4.43;;;2.10;;
52512;SDS011;38422;53.172;6.974;2023-08-21T02:53:02;4.82;;;2.47;;
52512;SDS011;38422;53.172;6.974;2023-08-21T02:55:28;5.65;;;2.70;;
52512;SDS011;38422;53.172;6.974;2023-08-21T02:57:53;5.18;;;2.10;;
52512;SDS011;38422;53.172;6.974;2023-08-21T03:00:19;2.65;;;1.73;;
52512;SDS011;38422;53.172;6.974;2023-08-21T03:02:45;4.38;;;2.00;;
52512;SDS011;38422;53.172;6.974;2023-08-21T03:05:11;4.90;;;1.90;;
52512;SDS011;38422;53.172;6.974;2023-08-21T03:07:36;3.40;;;1.75;;
52512;SDS011;38422;53.172;6.974;2023-08-21T03:10:02;2.58;;;1.45;;
52512;SDS011;38422;53.172;6.974;2023-08-21T03:12:28;2.75;;;1.30;;
52512;SDS011;38422;53.172;6.974;2023-08-21T03:14:54;3.13;;;1.20;;
52512;SDS011;38422;53.172;6.974;2023-08-21T03:17:19;2.83;;;1.30;;
52512;SDS011;38422;53.172;6.974;2023-08-21T03:19:45;1.80;;;1.30;;
52512;SDS011;38422;53.172;6.974;2023-08-21T03:22:11;1.30;;;1.15;;
52512;SDS011;38422;53.172;6.974;2023-08-21T03:24:36;1.58;;;1.10;;
52512;SDS011;38422;53.172;6.974;2023-08-21T03:27:02;2.85;;;1.27;;
52512;SDS011;38422;53.172;6.974;2023-08-21T03:29:28;2.08;;;1.70;;
52512;SDS011;38422;53.172;6.974;2023-08-21T03:31:54;3.53;;;1.35;;
52512;SDS011;38422;53.172;6.974;2023-08-21T03:34:20;2.25;;;1.20;;
52512;SDS011;38422;53.172;6.974;2023-08-21T03:36:45;1.88;;;1.30;;
52512;SDS011;38422;53.172;6.974;2023-08-21T03:39:11;1.90;;;1.00;;
52512;SDS011;38422;53.172;6.974;2023-08-21T03:41:37;2.78;;;1.25;;
52512;SDS011;38422;53.172;6.974;2023-08-21T03:44:02;4.10;;;1.20;;
52512;SDS011;38422;53.172;6.974;2023-08-21T03:46:28;2.17;;;1.30;;
52512;SDS011;38422;53.172;6.974;2023-08-21T03:48:54;2.90;;;1.30;;
52512;SDS011;38422;53.172;6.974;2023-08-21T03:51:20;2.05;;;1.25;;
52512;SDS011;38422;53.172;6.974;2023-08-21T03:53:45;2.30;;;1.10;;
52512;SDS011;38422;53.172;6.974;2023-08-21T03:56:11;2.10;;;1.13;;
52512;SDS011;38422;53.172;6.974;2023-08-21T03:58:37;1.67;;;1.10;;
52512;SDS011;38422;53.172;6.974;2023-08-21T04:01:02;2.53;;;1.17;;
52512;SDS011;38422;53.172;6.974;2023-08-21T04:03:28;2.58;;;1.00;;
52512;SDS011;38422;53.172;6.974;2023-08-21T04:05:54;3.50;;;1.10;;
52512;SDS011;38422;53.172;6.974;2023-08-21T04:10:47;3.60;;;1.10;;
52512;SDS011;38422;53.172;6.974;2023-08-21T04:13:13;3.25;;;1.27;;
52512;SDS011;38422;53.172;6.974;2023-08-21T04:15:38;2.25;;;1.58;;
52512;SDS011;38422;53.172;6.974;2023-08-21T04:18:09;2.60;;;1.40;;
52512;SDS011;38422;53.172;6.974;2023-08-21T04:20:34;3.97;;;1.20;;
52512;SDS011;38422;53.172;6.974;2023-08-21T04:23:00;4.13;;;1.30;;
52512;SDS011;38422;53.172;6.974;2023-08-21T04:25:26;2.60;;;1.30;;
52512;SDS011;38422;53.172;6.974;2023-08-21T04:27:51;3.22;;;1.42;;
52512;SDS011;38422;53.172;6.974;2023-08-21T04:30:17;4.60;;;1.52;;
52512;SDS011;38422;53.172;6.974;2023-08-21T04:32:43;4.05;;;1.23;;
52512;SDS011;38422;53.172;6.974;2023-08-21T04:35:08;3.65;;;1.40;;
52512;SDS011;38422;53.172;6.974;2023-08-21T04:37:34;2.70;;;1.23;;
52512;SDS011;38422;53.172;6.974;2023-08-21T04:40:08;2.58;;;1.50;;
52512;SDS011;38422;53.172;6.974;2023-08-21T04:42:35;3.83;;;1.63;;
52512;SDS011;38422;53.172;6.974;2023-08-21T04:45:00;4.18;;;1.65;;
52512;SDS011;38422;53.172;6.974;2023-08-21T04:47:27;4.55;;;1.90;;
52512;SDS011;38422;53.172;6.974;2023-08-21T04:49:53;3.85;;;1.70;;
52512;SDS011;38422;53.172;6.974;2023-08-21T04:52:20;3.22;;;1.60;;
52512;SDS011;38422;53.172;6.974;2023-08-21T04:54:47;4.53;;;1.65;;
52512;SDS011;38422;53.172;6.974;2023-08-21T04:57:13;2.63;;;1.70;;
52512;SDS011;38422;53.172;6.974;2023-08-21T04:59:39;4.60;;;1.60;;
52512;SDS011;38422;53.172;6.974;2023-08-21T05:02:05;3.88;;;1.50;;
52512;SDS011;38422;53.172;6.974;2023-08-21T05:04:31;3.60;;;1.70;;
52512;SDS011;38422;53.172;6.974;2023-08-21T05:06:57;3.33;;;1.73;;
52512;SDS011;38422;53.172;6.974;2023-08-21T05:09:23;3.20;;;1.70;;
52512;SDS011;38422;53.172;6.974;2023-08-21T05:11:48;3.60;;;1.67;;
52512;SDS011;38422;53.172;6.974;2023-08-21T05:14:14;4.07;;;1.60;;
52512;SDS011;38422;53.172;6.974;2023-08-21T05:16:39;4.80;;;1.73;;
52512;SDS011;38422;53.172;6.974;2023-08-21T05:19:05;4.63;;;1.70;;
52512;SDS011;38422;53.172;6.974;2023-08-21T05:21:31;2.85;;;1.58;;
52512;SDS011;38422;53.172;6.974;2023-08-21T05:23:56;2.88;;;1.67;;
52512;SDS011;38422;53.172;6.974;2023-08-21T05:26:22;3.50;;;1.83;;
52512;SDS011;38422;53.172;6.974;2023-08-21T05:28:48;4.03;;;1.65;;
52512;SDS011;38422;53.172;6.974;2023-08-21T05:31:13;3.38;;;1.70;;
52512;SDS011;38422;53.172;6.974;2023-08-21T05:33:39;4.22;;;1.90;;
52512;SDS011;38422;53.172;6.974;2023-08-21T05:36:05;3.13;;;1.67;;
52512;SDS011;38422;53.172;6.974;2023-08-21T05:38:32;3.92;;;1.73;;
52512;SDS011;38422;53.172;6.974;2023-08-21T05:43:23;4.20;;;1.67;;
52512;SDS011;38422;53.172;6.974;2023-08-21T05:45:49;5.37;;;2.00;;
52512;SDS011;38422;53.172;6.974;2023-08-21T05:48:15;5.82;;;1.85;;
52512;SDS011;38422;53.172;6.974;2023-08-21T05:50:43;5.65;;;2.40;;
52512;SDS011;38422;53.172;6.974;2023-08-21T05:53:09;4.68;;;2.25;;
52512;SDS011;38422;53.172;6.974;2023-08-21T05:55:38;5.18;;;2.70;;
52512;SDS011;38422;53.172;6.974;2023-08-21T05:58:04;5.22;;;2.42;;
52512;SDS011;38422;53.172;6.974;2023-08-21T06:00:29;5.45;;;2.70;;
52512;SDS011;38422;53.172;6.974;2023-08-21T06:02:55;6.80;;;2.70;;
52512;SDS011;38422;53.172;6.974;2023-08-21T06:05:21;7.32;;;2.67;;
52512;SDS011;38422;53.172;6.974;2023-08-21T06:07:46;7.18;;;2.40;;
52512;SDS011;38422;53.172;6.974;2023-08-21T06:10:12;6.65;;;2.67;;
52512;SDS011;38422;53.172;6.974;2023-08-21T06:15:06;8.05;;;2.80;;
52512;SDS011;38422;53.172;6.974;2023-08-21T06:17:35;6.30;;;2.45;;
52512;SDS011;38422;53.172;6.974;2023-08-21T06:20:01;5.90;;;2.57;;
52512;SDS011;38422;53.172;6.974;2023-08-21T06:22:28;5.45;;;2.45;;
52512;SDS011;38422;53.172;6.974;2023-08-21T06:24:53;5.50;;;2.33;;
52512;SDS011;38422;53.172;6.974;2023-08-21T06:27:19;5.55;;;2.50;;
52512;SDS011;38422;53.172;6.974;2023-08-21T06:29:45;7.05;;;2.85;;
52512;SDS011;38422;53.172;6.974;2023-08-21T06:32:10;4.25;;;2.50;;
52512;SDS011;38422;53.172;6.974;2023-08-21T06:34:36;5.95;;;2.78;;
52512;SDS011;38422;53.172;6.974;2023-08-21T06:37:02;7.82;;;3.05;;
52512;SDS011;38422;53.172;6.974;2023-08-21T06:39:28;8.73;;;3.20;;
52512;SDS011;38422;53.172;6.974;2023-08-21T06:41:54;6.85;;;2.88;;
52512;SDS011;38422;53.172;6.974;2023-08-21T06:44:19;9.10;;;3.00;;
52512;SDS011;38422;53.172;6.974;2023-08-21T06:46:45;8.68;;;2.90;;
52512;SDS011;38422;53.172;6.974;2023-08-21T06:49:11;9.98;;;3.05;;
52512;SDS011;38422;53.172;6.974;2023-08-21T06:51:37;9.00;;;2.80;;
52512;SDS011;38422;53.172;6.974;2023-08-21T06:54:02;8.48;;;2.65;;
52512;SDS011;38422;53.172;6.974;2023-08-21T06:56:31;7.57;;;2.38;;
52512;SDS011;38422;53.172;6.974;2023-08-21T06:58:57;6.13;;;2.00;;
52512;SDS011;38422;53.172;6.974;2023-08-21T07:01:23;6.65;;;2.45;;
52512;SDS011;38422;53.172;6.974;2023-08-21T07:03:48;8.15;;;2.22;;
52512;SDS011;38422;53.172;6.974;2023-08-21T07:06:14;7.05;;;2.55;;
52512;SDS011;38422;53.172;6.974;2023-08-21T07:08:40;6.03;;;2.33;;
52512;SDS011;38422;53.172;6.974;2023-08-21T07:11:06;5.57;;;2.65;;
52512;SDS011;38422;53.172;6.974;2023-08-21T07:13:35;7.40;;;2.60;;
52512;SDS011;38422;53.172;6.974;2023-08-21T07:16:01;7.30;;;2.77;;
52512;SDS011;38422;53.172;6.974;2023-08-21T07:18:28;6.50;;;2.88;;
52512;SDS011;38422;53.172;6.974;2023-08-21T07:20:55;6.78;;;2.60;;
52512;SDS011;38422;53.172;6.974;2023-08-21T07:23:21;5.15;;;2.60;;
52512;SDS011;38422;53.172;6.974;2023-08-21T07:25:47;7.70;;;2.72;;
52512;SDS011;38422;53.172;6.974;2023-08-21T07:28:12;8.45;;;2.80;;
52512;SDS011;38422;53.172;6.974;2023-08-21T07:30:38;8.85;;;2.58;;
52512;SDS011;38422;53.172;6.974;2023-08-21T07:33:04;8.57;;;2.90;;
52512;SDS011;38422;53.172;6.974;2023-08-21T07:35:30;7.13;;;2.60;;
52512;SDS011;38422;53.172;6.974;2023-08-21T07:37:57;6.60;;;2.03;;
52512;SDS011;38422;53.172;6.974;2023-08-21T07:40:22;6.82;;;1.83;;
52512;SDS011;38422;53.172;6.974;2023-08-21T07:42:48;7.55;;;1.75;;
52512;SDS011;38422;53.172;6.974;2023-08-21T07:45:14;5.95;;;2.00;;
52512;SDS011;38422;53.172;6.974;2023-08-21T07:47:40;5.82;;;1.67;;
52512;SDS011;38422;53.172;6.974;2023-08-21T07:50:06;7.43;;;1.92;;
52512;SDS011;38422;53.172;6.974;2023-08-21T07:52:32;6.73;;;1.50;;
52512;SDS011;38422;53.172;6.974;2023-08-21T07:54:59;4.65;;;1.10;;
52512;SDS011;38422;53.172;6.974;2023-08-21T07:57:26;2.80;;;1.20;;
52512;SDS011;38422;53.172;6.974;2023-08-21T07:59:52;4.95;;;1.50;;
52512;SDS011;38422;53.172;6.974;2023-08-21T08:02:17;4.00;;;1.33;;
52512;SDS011;38422;53.172;6.974;2023-08-21T08:04:43;5.85;;;1.65;;
52512;SDS011;38422;53.172;6.974;2023-08-21T08:07:09;3.95;;;1.45;;
52512;SDS011;38422;53.172;6.974;2023-08-21T08:09:35;4.95;;;1.60;;
52512;SDS011;38422;53.172;6.974;2023-08-21T08:12:01;4.40;;;1.55;;
52512;SDS011;38422;53.172;6.974;2023-08-21T08:14:27;4.03;;;1.70;;
52512;SDS011;38422;53.172;6.974;2023-08-21T08:16:53;3.50;;;1.40;;
52512;SDS011;38422;53.172;6.974;2023-08-21T08:19:18;3.97;;;1.83;;
52512;SDS011;38422;53.172;6.974;2023-08-21T08:21:44;3.67;;;1.10;;
52512;SDS011;38422;53.172;6.974;2023-08-21T08:24:10;4.03;;;1.08;;
52512;SDS011;38422;53.172;6.974;2023-08-21T08:26:36;4.85;;;1.70;;
52512;SDS011;38422;53.172;6.974;2023-08-21T08:29:05;3.42;;;1.25;;
52512;SDS011;38422;53.172;6.974;2023-08-21T08:31:31;5.13;;;1.48;;
52512;SDS011;38422;53.172;6.974;2023-08-21T08:33:57;3.65;;;1.33;;
52512;SDS011;38422;53.172;6.974;2023-08-21T08:36:23;3.78;;;1.55;;
52512;SDS011;38422;53.172;6.974;2023-08-21T08:38:49;3.75;;;1.05;;
52512;SDS011;38422;53.172;6.974;2023-08-21T08:41:22;4.45;;;0.85;;
52512;SDS011;38422;53.172;6.974;2023-08-21T08:43:56;3.08;;;1.10;;
52512;SDS011;38422;53.172;6.974;2023-08-21T08:46:25;4.60;;;1.23;;
52512;SDS011;38422;53.172;6.974;2023-08-21T08:48:54;3.33;;;0.60;;
52512;SDS011;38422;53.172;6.974;2023-08-21T08:51:21;3.38;;;0.80;;
52512;SDS011;38422;53.172;6.974;2023-08-21T08:53:49;3.65;;;0.90;;
52512;SDS011;38422;53.172;6.974;2023-08-21T08:56:16;4.38;;;0.88;;
52512;SDS011;38422;53.172;6.974;2023-08-21T08:58:42;0.97;;;0.40;;
52512;SDS011;38422;53.172;6.974;2023-08-21T09:01:08;2.58;;;0.60;;
52512;SDS011;38422;53.172;6.974;2023-08-21T09:03:35;2.42;;;0.95;;
52512;SDS011;38422;53.172;6.974;2023-08-21T09:06:06;2.90;;;0.80;;
52512;SDS011;38422;53.172;6.974;2023-08-21T09:08:32;3.47;;;0.57;;
52512;SDS011;38422;53.172;6.974;2023-08-21T09:11:00;1.58;;;0.52;;
52512;SDS011;38422;53.172;6.974;2023-08-21T09:13:28;2.50;;;0.60;;
52512;SDS011;38422;53.172;6.974;2023-08-21T09:15:56;1.90;;;0.50;;
52512;SDS011;38422;53.172;6.974;2023-08-21T09:18:23;3.80;;;0.80;;
52512;SDS011;38422;53.172;6.974;2023-08-21T09:20:51;2.08;;;0.60;;
52512;SDS011;38422;53.172;6.974;2023-08-21T09:23:18;2.38;;;0.63;;
52512;SDS011;38422;53.172;6.974;2023-08-21T09:25:44;2.10;;;0.50;;
52512;SDS011;38422;53.172;6.974;2023-08-21T09:28:14;2.40;;;0.60;;
52512;SDS011;38422;53.172;6.974;2023-08-21T09:30:47;4.57;;;0.55;;
52512;SDS011;38422;53.172;6.974;2023-08-21T09:33:17;3.45;;;0.60;;
52512;SDS011;38422;53.172;6.974;2023-08-21T09:35:47;1.90;;;0.60;;
52512;SDS011;38422;53.172;6.974;2023-08-21T09:38:13;3.92;;;0.60;;
52512;SDS011;38422;53.172;6.974;2023-08-21T09:40:43;1.75;;;0.50;;
52512;SDS011;38422;53.172;6.974;2023-08-21T09:43:16;2.58;;;0.70;;
52512;SDS011;38422;53.172;6.974;2023-08-21T09:45:42;4.13;;;0.70;;
52512;SDS011;38422;53.172;6.974;2023-08-21T09:48:11;3.15;;;0.70;;
52512;SDS011;38422;53.172;6.974;2023-08-21T09:50:38;2.38;;;0.60;;
52512;SDS011;38422;53.172;6.974;2023-08-21T09:55:35;1.98;;;0.50;;
52512;SDS011;38422;53.172;6.974;2023-08-21T09:58:02;2.88;;;0.73;;
52512;SDS011;38422;53.172;6.974;2023-08-21T10:00:32;2.35;;;0.43;;
52512;SDS011;38422;53.172;6.974;2023-08-21T10:03:04;4.20;;;1.02;;
52512;SDS011;38422;53.172;6.974;2023-08-21T10:05:33;1.48;;;0.52;;
52512;SDS011;38422;53.172;6.974;2023-08-21T10:08:01;2.63;;;0.45;;
52512;SDS011;38422;53.172;6.974;2023-08-21T10:10:32;2.20;;;0.50;;
52512;SDS011;38422;53.172;6.974;2023-08-21T10:13:00;2.92;;;0.60;;
52512;SDS011;38422;53.172;6.974;2023-08-21T10:15:30;4.10;;;0.63;;
52512;SDS011;38422;53.172;6.974;2023-08-21T10:17:57;2.75;;;0.60;;
52512;SDS011;38422;53.172;6.974;2023-08-21T10:20:24;4.70;;;0.70;;
52512;SDS011;38422;53.172;6.974;2023-08-21T10:22:54;1.75;;;0.60;;
52512;SDS011;38422;53.172;6.974;2023-08-21T10:25:26;2.28;;;0.60;;
52512;SDS011;38422;53.172;6.974;2023-08-21T10:27:52;1.97;;;0.60;;
52512;SDS011;38422;53.172;6.974;2023-08-21T10:30:26;3.15;;;0.57;;
52512;SDS011;38422;53.172;6.974;2023-08-21T10:32:57;3.78;;;0.82;;
52512;SDS011;38422;53.172;6.974;2023-08-21T10:35:24;2.60;;;0.57;;
52512;SDS011;38422;53.172;6.974;2023-08-21T10:40:40;2.80;;;0.63;;
52512;SDS011;38422;53.172;6.974;2023-08-21T10:43:39;2.83;;;0.43;;
52512;SDS011;38422;53.172;6.974;2023-08-21T10:46:08;4.30;;;1.13;;
52512;SDS011;38422;53.172;6.974;2023-08-21T10:48:35;2.33;;;0.68;;
52512;SDS011;38422;53.172;6.974;2023-08-21T10:51:02;3.13;;;0.68;;
52512;SDS011;38422;53.172;6.974;2023-08-21T10:53:30;2.83;;;0.60;;
52512;SDS011;38422;53.172;6.974;2023-08-21T10:56:05;3.30;;;0.50;;
52512;SDS011;38422;53.172;6.974;2023-08-21T10:58:38;1.52;;;0.38;;
52512;SDS011;38422;53.172;6.974;2023-08-21T11:01:07;2.38;;;0.57;;
52512;SDS011;38422;53.172;6.974;2023-08-21T11:03:33;1.83;;;0.40;;
52512;SDS011;38422;53.172;6.974;2023-08-21T11:06:06;1.93;;;0.60;;
52512;SDS011;38422;53.172;6.974;2023-08-21T11:08:35;2.63;;;0.52;;
52512;SDS011;38422;53.172;6.974;2023-08-21T11:11:02;2.90;;;0.50;;
52512;SDS011;38422;53.172;6.974;2023-08-21T11:13:29;1.63;;;0.43;;
52512;SDS011;38422;53.172;6.974;2023-08-21T11:16:02;4.47;;;0.63;;
52512;SDS011;38422;53.172;6.974;2023-08-21T11:18:35;1.63;;;0.38;;
52512;SDS011;38422;53.172;6.974;2023-08-21T11:21:12;1.65;;;0.40;;
52512;SDS011;38422;53.172;6.974;2023-08-21T11:23:40;3.25;;;0.60;;
52512;SDS011;38422;53.172;6.974;2023-08-21T11:26:10;2.67;;;0.70;;
52512;SDS011;38422;53.172;6.974;2023-08-21T11:28:43;2.20;;;0.60;;
52512;SDS011;38422;53.172;6.974;2023-08-21T11:31:09;1.52;;;0.68;;
52512;SDS011;38422;53.172;6.974;2023-08-21T11:33:36;4.03;;;0.57;;
52512;SDS011;38422;53.172;6.974;2023-08-21T11:36:04;2.92;;;0.70;;
52512;SDS011;38422;53.172;6.974;2023-08-21T11:38:30;1.42;;;0.40;;
52512;SDS011;38422;53.172;6.974;2023-08-21T11:41:04;1.97;;;0.70;;
52512;SDS011;38422;53.172;6.974;2023-08-21T11:43:34;1.85;;;0.43;;
52512;SDS011;38422;53.172;6.974;2023-08-21T11:46:02;1.60;;;0.60;;
52512;SDS011;38422;53.172;6.974;2023-08-21T11:48:29;1.38;;;0.60;;
52512;SDS011;38422;53.172;6.974;2023-08-21T11:50:55;2.03;;;0.47;;
52512;SDS011;38422;53.172;6.974;2023-08-21T11:55:58;3.60;;;0.60;;
52512;SDS011;38422;53.172;6.974;2023-08-21T11:58:26;1.60;;;0.50;;
52512;SDS011;38422;53.172;6.974;2023-08-21T12:00:52;1.90;;;0.50;;
52512;SDS011;38422;53.172;6.974;2023-08-21T12:03:18;5.53;;;0.57;;
52512;SDS011;38422;53.172;6.974;2023-08-21T12:05:44;2.83;;;0.60;;
52512;SDS011;38422;53.172;6.974;2023-08-21T12:08:10;2.23;;;0.60;;
52512;SDS011;38422;53.172;6.974;2023-08-21T12:10:35;2.13;;;0.50;;
52512;SDS011;38422;53.172;6.974;2023-08-21T12:13:01;2.47;;;0.70;;
52512;SDS011;38422;53.172;6.974;2023-08-21T12:15:29;2.63;;;0.50;;
52512;SDS011;38422;53.172;6.974;2023-08-21T12:17:55;1.80;;;0.43;;
52512;SDS011;38422;53.172;6.974;2023-08-21T12:20:21;2.13;;;0.60;;
52512;SDS011;38422;53.172;6.974;2023-08-21T12:22:46;4.10;;;0.60;;
52512;SDS011;38422;53.172;6.974;2023-08-21T12:25:12;1.20;;;0.50;;
52512;SDS011;38422;53.172;6.974;2023-08-21T12:27:38;2.38;;;0.70;;
52512;SDS011;38422;53.172;6.974;2023-08-21T12:30:05;3.63;;;0.70;;
52512;SDS011;38422;53.172;6.974;2023-08-21T12:32:31;2.45;;;0.52;;
52512;SDS011;38422;53.172;6.974;2023-08-21T12:34:57;1.67;;;0.50;;
52512;SDS011;38422;53.172;6.974;2023-08-21T12:37:22;2.17;;;0.50;;
52512;SDS011;38422;53.172;6.974;2023-08-21T12:39:48;3.30;;;0.47;;
52512;SDS011;38422;53.172;6.974;2023-08-21T12:42:14;3.90;;;0.73;;
52512;SDS011;38422;53.172;6.974;2023-08-21T12:44:39;2.00;;;0.60;;
52512;SDS011;38422;53.172;6.974;2023-08-21T12:47:05;1.63;;;0.50;;
52512;SDS011;38422;53.172;6.974;2023-08-21T12:49:31;1.90;;;0.57;;
52512;SDS011;38422;53.172;6.974;2023-08-21T12:51:57;2.43;;;0.67;;
52512;SDS011;38422;53.172;6.974;2023-08-21T12:54:22;1.60;;;0.50;;
52512;SDS011;38422;53.172;6.974;2023-08-21T12:56:48;1.87;;;0.43;;
52512;SDS011;38422;53.172;6.974;2023-08-21T12:59:13;2.03;;;0.67;;
52512;SDS011;38422;53.172;6.974;2023-08-21T13:01:39;2.40;;;0.80;;
52512;SDS011;38422;53.172;6.974;2023-08-21T13:04:05;3.78;;;0.60;;
52512;SDS011;38422;53.172;6.974;2023-08-21T13:06:31;2.97;;;0.60;;
52512;SDS011;38422;53.172;6.974;2023-08-21T13:08:57;1.48;;;0.50;;
52512;SDS011;38422;53.172;6.974;2023-08-21T13:11:22;1.70;;;0.50;;
52512;SDS011;38422;53.172;6.974;2023-08-21T13:13:48;2.17;;;0.80;;
52512;SDS011;38422;53.172;6.974;2023-08-21T13:16:14;1.77;;;0.52;;
52512;SDS011;38422;53.172;6.974;2023-08-21T13:18:40;1.83;;;0.60;;
52512;SDS011;38422;53.172;6.974;2023-08-21T13:21:05;2.08;;;0.50;;
52512;SDS011;38422;53.172;6.974;2023-08-21T13:23:31;3.37;;;0.70;;
52512;SDS011;38422;53.172;6.974;2023-08-21T13:25:59;0.82;;;0.43;;
52512;SDS011;38422;53.172;6.974;2023-08-21T13:28:25;3.45;;;0.68;;
52512;SDS011;38422;53.172;6.974;2023-08-21T13:30:51;1.42;;;0.50;;
52512;SDS011;38422;53.172;6.974;2023-08-21T13:33:17;2.38;;;0.55;;
52512;SDS011;38422;53.172;6.974;2023-08-21T13:35:46;3.40;;;0.68;;
52512;SDS011;38422;53.172;6.974;2023-08-21T13:38:12;3.95;;;0.70;;
52512;SDS011;38422;53.172;6.974;2023-08-21T13:40:39;2.75;;;0.60;;
52512;SDS011;38422;53.172;6.974;2023-08-21T13:43:05;1.98;;;0.50;;
52512;SDS011;38422;53.172;6.974;2023-08-21T13:47:58;2.88;;;1.00;;
52512;SDS011;38422;53.172;6.974;2023-08-21T13:50:24;1.83;;;0.40;;
52512;SDS011;38422;53.172;6.974;2023-08-21T13:52:49;2.08;;;0.80;;
52512;SDS011;38422;53.172;6.974;2023-08-21T13:55:15;0.90;;;0.40;;
52512;SDS011;38422;53.172;6.974;2023-08-21T13:57:41;1.98;;;0.70;;
52512;SDS011;38422;53.172;6.974;2023-08-21T14:00:11;4.15;;;1.35;;
52512;SDS011;38422;53.172;6.974;2023-08-21T14:05:11;1.63;;;0.60;;
52512;SDS011;38422;53.172;6.974;2023-08-21T14:07:40;3.20;;;0.80;;
52512;SDS011;38422;53.172;6.974;2023-08-21T14:10:06;3.45;;;0.73;;
52512;SDS011;38422;53.172;6.974;2023-08-21T14:14:58;2.92;;;0.70;;
52512;SDS011;38422;53.172;6.974;2023-08-21T14:17:25;1.92;;;0.60;;
52512;SDS011;38422;53.172;6.974;2023-08-21T14:19:51;1.45;;;0.50;;
52512;SDS011;38422;53.172;6.974;2023-08-21T14:22:16;1.90;;;0.50;;
52512;SDS011;38422;53.172;6.974;2023-08-21T14:24:42;1.27;;;0.40;;
52512;SDS011;38422;53.172;6.974;2023-08-21T14:27:08;1.45;;;0.50;;
52512;SDS011;38422;53.172;6.974;2023-08-21T14:29:33;2.22;;;0.80;;
52512;SDS011;38422;53.172;6.974;2023-08-21T14:31:59;2.25;;;0.50;;
52512;SDS011;38422;53.172;6.974;2023-08-21T14:34:25;1.67;;;0.57;;
52512;SDS011;38422;53.172;6.974;2023-08-21T14:36:53;2.10;;;0.50;;
52512;SDS011;38422;53.172;6.974;2023-08-21T14:39:19;1.85;;;0.50;;
52512;SDS011;38422;53.172;6.974;2023-08-21T14:44:11;1.90;;;0.70;;
52512;SDS011;38422;53.172;6.974;2023-08-21T14:46:40;1.67;;;0.55;;
52512;SDS011;38422;53.172;6.974;2023-08-21T14:49:05;2.40;;;0.80;;
52512;SDS011;38422;53.172;6.974;2023-08-21T14:51:31;1.58;;;0.60;;
52512;SDS011;38422;53.172;6.974;2023-08-21T14:53:57;1.92;;;0.45;;
52512;SDS011;38422;53.172;6.974;2023-08-21T14:56:25;4.38;;;0.80;;
52512;SDS011;38422;53.172;6.974;2023-08-21T14:58:55;3.80;;;0.70;;
52512;SDS011;38422;53.172;6.974;2023-08-21T15:01:21;1.25;;;0.30;;
52512;SDS011;38422;53.172;6.974;2023-08-21T15:03:47;1.35;;;0.40;;
52512;SDS011;38422;53.172;6.974;2023-08-21T15:06:12;2.22;;;0.50;;
52512;SDS011;38422;53.172;6.974;2023-08-21T15:08:40;2.13;;;0.60;;
52512;SDS011;38422;53.172;6.974;2023-08-21T15:11:06;2.40;;;0.57;;
52512;SDS011;38422;53.172;6.974;2023-08-21T15:13:33;2.45;;;0.60;;
52512;SDS011;38422;53.172;6.974;2023-08-21T15:15:59;2.13;;;0.45;;
52512;SDS011;38422;53.172;6.974;2023-08-21T15:18:24;1.58;;;0.60;;